PWSweather.com
Personal Weather Stations
Station Observations

AwhituWaiuku, CA 268400

Lat: -37.058, Lon: -174.6346

Elevation: 250

Station Type: Personal

http://www.weather-display.com/windy/gb/grahamsbeach.htm

Latest ConditionsUpdated 11:00:17 AM GMT-12:48 Friday, May 24, 2019
Currently Today's Max Today's Min Today's Average
Temperature 60.3°F15.7°C 60.3°F15.7°C 49.6°F9.8°C 53.1°F11.7°C
Dew Point 56.1°F13.4°C 56.1°F13.4°C 47.9°F8.8°C 50.7°F10.4°C
Winds 2.3 mph SE3.7 kmh SE 3.5 mph -5.6 kmh - - 1.5 mph 2.4 kmh
Wind Gusts 3.5 mph5.6 kmh 3.5 mph5.6 kmh - -
Humidity 86% 95% 86% 91%
Pressure 30.26 in1024.7 mb 30.29 in1025.7 mb 30.25 in1024.4 mb -
Precipitation - 0.01 in0.3 mm - -
Hour Temp Dew Point Humidity Winds Wind Gusts Pressure Precip Precip Rate Daily Precip Total
11:00 AM 60.3°F15.7°C 56.1°F13.4°C 86% 2.3 mph SE3.7 kmh SE 3.5 mph5.6 kmh 30.26 in1024.7 mb - 0.00 in0.0 mm 0.01 in0.3 mm
10:30 AM 57.5°F14.2°C 54.6°F12.6°C 90% 2.3 mph E3.7 kmh E 3.5 mph5.6 kmh 30.27 in1025.1 mb - 0.00 in0.0 mm 0.01 in0.3 mm
10:00 AM 56.0°F13.3°C 54.0°F12.2°C 93% 1.2 mph ESE1.9 kmh ESE 2.3 mph3.7 kmh 30.26 in1024.7 mb - 0.01 in0.3 mm 0.01 in0.3 mm
09:30 AM 54.0°F12.2°C 52.6°F11.4°C 95% Calm Calm -- 30.27 in1025.1 mb - 0.01 in0.3 mm 0.01 in0.3 mm
09:02 AM 51.7°F10.9°C 50.3°F10.2°C 95% 1.2 mph SE1.9 kmh SE 2.3 mph3.7 kmh 30.27 in1025.1 mb - 0.00 in0.0 mm 0.00 in0.0 mm
08:30 AM 50.4°F10.2°C 49.1°F9.5°C 95% 1.2 mph SE1.9 kmh SE 2.3 mph3.7 kmh 30.27 in1025.1 mb - 0.00 in0.0 mm 0.00 in0.0 mm
08:02 AM 49.6°F9.8°C 47.9°F8.8°C 94% Calm Calm -- 30.26 in1024.7 mb - 0.00 in0.0 mm 0.00 in0.0 mm
07:03 AM 50.0°F10.0°C 48.4°F9.1°C 94% Calm Calm -- 30.25 in1024.4 mb - 0.00 in0.0 mm 0.00 in0.0 mm
06:02 AM 50.4°F10.2°C 48.4°F9.1°C 93% 1.2 mph SE1.9 kmh SE 2.3 mph3.7 kmh 30.25 in1024.4 mb - 0.00 in0.0 mm 0.00 in0.0 mm
05:00 AM 51.1°F10.6°C 48.9°F9.4°C 92% Calm Calm -- 30.26 in1024.7 mb - 0.00 in0.0 mm 0.00 in0.0 mm
04:30 AM 51.7°F10.9°C 49.5°F9.7°C 92% 2.3 mph SE3.7 kmh SE 3.5 mph5.6 kmh 30.26 in1024.7 mb - 0.00 in0.0 mm 0.00 in0.0 mm
04:00 AM 51.7°F10.9°C 49.1°F9.5°C 91% Calm Calm -- 30.26 in1024.7 mb - 0.00 in0.0 mm 0.00 in0.0 mm
03:30 AM 52.1°F11.2°C 49.9°F9.9°C 92% 1.2 mph ESE1.9 kmh ESE 3.5 mph5.6 kmh 30.27 in1025.1 mb - 0.00 in0.0 mm 0.00 in0.0 mm
03:00 AM 52.4°F11.3°C 49.8°F9.9°C 91% Calm Calm -- 30.27 in1025.1 mb - 0.00 in0.0 mm 0.00 in0.0 mm
02:30 AM 53.1°F11.7°C 50.5°F10.3°C 91% 2.3 mph ESE3.7 kmh ESE 3.5 mph5.6 kmh 30.28 in1025.4 mb - 0.00 in0.0 mm 0.00 in0.0 mm
02:00 AM 53.6°F12.0°C 50.7°F10.4°C 90% 3.5 mph ESE5.6 kmh ESE 3.5 mph5.6 kmh 30.28 in1025.4 mb - 0.00 in0.0 mm 0.00 in0.0 mm
01:30 AM 53.9°F12.2°C 50.7°F10.4°C 89% 3.5 mph SE5.6 kmh SE 3.5 mph5.6 kmh 30.28 in1025.4 mb - 0.00 in0.0 mm 0.00 in0.0 mm
01:00 AM 54.3°F12.4°C 51.1°F10.6°C 89% 3.5 mph ESE5.6 kmh ESE 3.5 mph5.6 kmh 30.28 in1025.4 mb - 0.00 in0.0 mm 0.00 in0.0 mm
12:30 AM 54.4°F12.4°C 50.9°F10.5°C 88% 2.3 mph SE3.7 kmh SE 3.5 mph5.6 kmh 30.29 in1025.7 mb - 0.00 in0.0 mm 0.00 in0.0 mm
12:00 AM 54.5°F12.5°C 50.7°F10.4°C 87% 1.2 mph E1.9 kmh E 2.3 mph3.7 kmh 30.29 in1025.7 mb - 0.00 in0.0 mm 0.00 in0.0 mm